sensor_id;sensor_type;location;lat;lon;timestamp;P1;durP1;ratioP1;P2;durP2;ratioP2
22812;SDS011;11573;51.334;3.244;2023-07-09T00:01:27;66.50;;;53.10;;
22812;SDS011;11573;51.334;3.244;2023-07-09T00:03:54;69.55;;;55.63;;
22812;SDS011;11573;51.334;3.244;2023-07-09T00:06:21;65.47;;;50.85;;
22812;SDS011;11573;51.334;3.244;2023-07-09T00:08:48;70.40;;;57.03;;
22812;SDS011;11573;51.334;3.244;2023-07-09T00:11:16;65.80;;;53.78;;
22812;SDS011;11573;51.334;3.244;2023-07-09T00:13:44;64.93;;;52.08;;
22812;SDS011;11573;51.334;3.244;2023-07-09T00:16:12;60.05;;;49.45;;
22812;SDS011;11573;51.334;3.244;2023-07-09T00:18:41;67.85;;;50.03;;
22812;SDS011;11573;51.334;3.244;2023-07-09T00:21:08;68.70;;;50.13;;
22812;SDS011;11573;51.334;3.244;2023-07-09T00:23:35;67.32;;;50.03;;
22812;SDS011;11573;51.334;3.244;2023-07-09T00:26:08;63.65;;;48.10;;
22812;SDS011;11573;51.334;3.244;2023-07-09T00:28:37;75.32;;;51.95;;
22812;SDS011;11573;51.334;3.244;2023-07-09T00:31:04;70.22;;;52.90;;
22812;SDS011;11573;51.334;3.244;2023-07-09T00:33:31;66.05;;;51.17;;
22812;SDS011;11573;51.334;3.244;2023-07-09T00:35:58;71.38;;;48.75;;
22812;SDS011;11573;51.334;3.244;2023-07-09T00:38:27;60.88;;;44.55;;
22812;SDS011;11573;51.334;3.244;2023-07-09T00:41:03;59.67;;;45.58;;
22812;SDS011;11573;51.334;3.244;2023-07-09T00:43:33;65.55;;;47.60;;
22812;SDS011;11573;51.334;3.244;2023-07-09T00:48:54;52.20;;;42.05;;
22812;SDS011;11573;51.334;3.244;2023-07-09T00:51:35;54.25;;;40.72;;
22812;SDS011;11573;51.334;3.244;2023-07-09T00:54:42;54.10;;;43.63;;
22812;SDS011;11573;51.334;3.244;2023-07-09T00:57:11;55.63;;;42.03;;
22812;SDS011;11573;51.334;3.244;2023-07-09T00:59:49;55.45;;;40.20;;
22812;SDS011;11573;51.334;3.244;2023-07-09T01:02:19;48.97;;;38.50;;
22812;SDS011;11573;51.334;3.244;2023-07-09T01:04:51;51.30;;;40.97;;
22812;SDS011;11573;51.334;3.244;2023-07-09T01:07:22;56.47;;;42.60;;
22812;SDS011;11573;51.334;3.244;2023-07-09T01:09:49;54.28;;;40.63;;
22812;SDS011;11573;51.334;3.244;2023-07-09T01:12:17;53.22;;;40.90;;
22812;SDS011;11573;51.334;3.244;2023-07-09T01:14:47;54.25;;;41.15;;
22812;SDS011;11573;51.334;3.244;2023-07-09T01:17:18;51.45;;;37.92;;
22812;SDS011;11573;51.334;3.244;2023-07-09T01:19:49;52.88;;;39.45;;
22812;SDS011;11573;51.334;3.244;2023-07-09T01:22:18;49.20;;;35.30;;
22812;SDS011;11573;51.334;3.244;2023-07-09T01:27:31;54.85;;;36.50;;
22812;SDS011;11573;51.334;3.244;2023-07-09T01:30:11;40.80;;;32.42;;
22812;SDS011;11573;51.334;3.244;2023-07-09T01:32:57;42.38;;;31.15;;
22812;SDS011;11573;51.334;3.244;2023-07-09T01:35:28;41.38;;;26.25;;
22812;SDS011;11573;51.334;3.244;2023-07-09T01:37:57;36.80;;;24.70;;
22812;SDS011;11573;51.334;3.244;2023-07-09T01:40:25;30.08;;;24.02;;
22812;SDS011;11573;51.334;3.244;2023-07-09T01:43:00;27.50;;;21.20;;
22812;SDS011;11573;51.334;3.244;2023-07-09T01:45:28;32.70;;;20.80;;
22812;SDS011;11573;51.334;3.244;2023-07-09T01:47:55;27.17;;;18.85;;
22812;SDS011;11573;51.334;3.244;2023-07-09T01:50:23;27.75;;;18.55;;
22812;SDS011;11573;51.334;3.244;2023-07-09T01:52:51;24.42;;;18.05;;
22812;SDS011;11573;51.334;3.244;2023-07-09T01:55:20;23.35;;;16.67;;
22812;SDS011;11573;51.334;3.244;2023-07-09T01:57:47;22.05;;;17.23;;
22812;SDS011;11573;51.334;3.244;2023-07-09T02:00:17;24.77;;;17.70;;
22812;SDS011;11573;51.334;3.244;2023-07-09T02:02:47;24.40;;;16.08;;
22812;SDS011;11573;51.334;3.244;2023-07-09T02:05:16;24.90;;;16.40;;
22812;SDS011;11573;51.334;3.244;2023-07-09T02:07:44;23.17;;;15.63;;
22812;SDS011;11573;51.334;3.244;2023-07-09T02:10:13;25.00;;;16.95;;
22812;SDS011;11573;51.334;3.244;2023-07-09T02:12:41;22.85;;;15.80;;
22812;SDS011;11573;51.334;3.244;2023-07-09T02:15:09;23.40;;;15.70;;
22812;SDS011;11573;51.334;3.244;2023-07-09T02:17:36;22.95;;;14.88;;
22812;SDS011;11573;51.334;3.244;2023-07-09T02:20:04;21.85;;;14.75;;
22812;SDS011;11573;51.334;3.244;2023-07-09T02:22:33;17.73;;;12.85;;
22812;SDS011;11573;51.334;3.244;2023-07-09T02:25:01;24.00;;;14.85;;
22812;SDS011;11573;51.334;3.244;2023-07-09T02:27:30;20.17;;;14.10;;
22812;SDS011;11573;51.334;3.244;2023-07-09T02:29:57;16.02;;;12.38;;
22812;SDS011;11573;51.334;3.244;2023-07-09T02:32:25;17.80;;;13.27;;
22812;SDS011;11573;51.334;3.244;2023-07-09T02:34:53;20.65;;;13.05;;
22812;SDS011;11573;51.334;3.244;2023-07-09T02:37:25;21.73;;;15.32;;
22812;SDS011;11573;51.334;3.244;2023-07-09T02:39:53;21.00;;;13.77;;
22812;SDS011;11573;51.334;3.244;2023-07-09T02:42:20;18.33;;;13.25;;
22812;SDS011;11573;51.334;3.244;2023-07-09T02:44:49;21.27;;;12.98;;
22812;SDS011;11573;51.334;3.244;2023-07-09T02:47:17;18.08;;;13.50;;
22812;SDS011;11573;51.334;3.244;2023-07-09T02:49:45;23.13;;;14.73;;
22812;SDS011;11573;51.334;3.244;2023-07-09T02:52:12;22.95;;;16.40;;
22812;SDS011;11573;51.334;3.244;2023-07-09T02:54:39;18.13;;;15.05;;
22812;SDS011;11573;51.334;3.244;2023-07-09T02:57:06;16.98;;;14.38;;
22812;SDS011;11573;51.334;3.244;2023-07-09T02:59:34;20.75;;;14.48;;
22812;SDS011;11573;51.334;3.244;2023-07-09T03:02:02;15.25;;;13.23;;
22812;SDS011;11573;51.334;3.244;2023-07-09T03:04:30;17.02;;;13.52;;
22812;SDS011;11573;51.334;3.244;2023-07-09T03:06:57;21.80;;;14.07;;
22812;SDS011;11573;51.334;3.244;2023-07-09T03:09:26;16.45;;;12.55;;
22812;SDS011;11573;51.334;3.244;2023-07-09T03:11:54;15.38;;;11.23;;
22812;SDS011;11573;51.334;3.244;2023-07-09T03:14:21;18.48;;;12.45;;
22812;SDS011;11573;51.334;3.244;2023-07-09T03:16:49;16.52;;;12.27;;
22812;SDS011;11573;51.334;3.244;2023-07-09T03:19:16;17.58;;;13.43;;
22812;SDS011;11573;51.334;3.244;2023-07-09T03:21:43;16.80;;;12.25;;
22812;SDS011;11573;51.334;3.244;2023-07-09T03:24:10;18.35;;;14.18;;
22812;SDS011;11573;51.334;3.244;2023-07-09T03:26:37;17.45;;;13.27;;
22812;SDS011;11573;51.334;3.244;2023-07-09T03:29:04;20.48;;;13.57;;
22812;SDS011;11573;51.334;3.244;2023-07-09T03:31:31;20.60;;;14.27;;
22812;SDS011;11573;51.334;3.244;2023-07-09T03:34:01;18.58;;;12.40;;
22812;SDS011;11573;51.334;3.244;2023-07-09T03:36:29;15.85;;;11.98;;
22812;SDS011;11573;51.334;3.244;2023-07-09T03:38:56;19.42;;;11.18;;
22812;SDS011;11573;51.334;3.244;2023-07-09T03:41:24;13.63;;;9.98;;
22812;SDS011;11573;51.334;3.244;2023-07-09T03:43:51;17.08;;;10.00;;
22812;SDS011;11573;51.334;3.244;2023-07-09T03:46:20;18.35;;;9.68;;
22812;SDS011;11573;51.334;3.244;2023-07-09T03:48:47;16.23;;;9.85;;
22812;SDS011;11573;51.334;3.244;2023-07-09T03:51:17;12.23;;;9.82;;
22812;SDS011;11573;51.334;3.244;2023-07-09T03:53:43;17.08;;;11.02;;
22812;SDS011;11573;51.334;3.244;2023-07-09T03:56:10;18.80;;;10.30;;
22812;SDS011;11573;51.334;3.244;2023-07-09T03:58:37;14.27;;;10.15;;
22812;SDS011;11573;51.334;3.244;2023-07-09T04:01:04;16.85;;;10.05;;
22812;SDS011;11573;51.334;3.244;2023-07-09T04:03:31;12.65;;;9.10;;
22812;SDS011;11573;51.334;3.244;2023-07-09T04:05:58;15.90;;;9.07;;
22812;SDS011;11573;51.334;3.244;2023-07-09T04:08:26;12.88;;;8.70;;
22812;SDS011;11573;51.334;3.244;2023-07-09T04:10:53;15.20;;;8.95;;
22812;SDS011;11573;51.334;3.244;2023-07-09T04:13:23;12.68;;;8.95;;
22812;SDS011;11573;51.334;3.244;2023-07-09T04:15:50;12.82;;;7.75;;
22812;SDS011;11573;51.334;3.244;2023-07-09T04:18:17;13.70;;;8.15;;
22812;SDS011;11573;51.334;3.244;2023-07-09T04:20:47;13.02;;;7.47;;
22812;SDS011;11573;51.334;3.244;2023-07-09T04:23:16;12.68;;;7.47;;
22812;SDS011;11573;51.334;3.244;2023-07-09T04:25:43;13.20;;;7.93;;
22812;SDS011;11573;51.334;3.244;2023-07-09T04:28:10;18.48;;;7.85;;
22812;SDS011;11573;51.334;3.244;2023-07-09T04:30:38;12.85;;;7.85;;
22812;SDS011;11573;51.334;3.244;2023-07-09T04:33:05;11.27;;;7.63;;
22812;SDS011;11573;51.334;3.244;2023-07-09T04:35:32;14.23;;;8.50;;
22812;SDS011;11573;51.334;3.244;2023-07-09T04:37:59;13.48;;;7.45;;
22812;SDS011;11573;51.334;3.244;2023-07-09T04:40:26;17.17;;;8.25;;
22812;SDS011;11573;51.334;3.244;2023-07-09T04:42:53;15.35;;;8.23;;
22812;SDS011;11573;51.334;3.244;2023-07-09T04:45:19;15.65;;;6.97;;
22812;SDS011;11573;51.334;3.244;2023-07-09T04:47:47;12.55;;;7.15;;
22812;SDS011;11573;51.334;3.244;2023-07-09T04:50:14;14.13;;;7.10;;
22812;SDS011;11573;51.334;3.244;2023-07-09T04:52:41;13.40;;;6.07;;
22812;SDS011;11573;51.334;3.244;2023-07-09T04:55:08;18.02;;;6.72;;
22812;SDS011;11573;51.334;3.244;2023-07-09T04:57:35;19.20;;;6.88;;
22812;SDS011;11573;51.334;3.244;2023-07-09T05:00:03;16.08;;;6.45;;
22812;SDS011;11573;51.334;3.244;2023-07-09T05:02:33;14.27;;;5.72;;
22812;SDS011;11573;51.334;3.244;2023-07-09T05:05:00;12.50;;;5.20;;
22812;SDS011;11573;51.334;3.244;2023-07-09T05:07:27;11.75;;;6.03;;
22812;SDS011;11573;51.334;3.244;2023-07-09T05:09:54;14.93;;;6.30;;
22812;SDS011;11573;51.334;3.244;2023-07-09T05:12:21;13.27;;;5.70;;
22812;SDS011;11573;51.334;3.244;2023-07-09T05:14:48;18.33;;;6.28;;
22812;SDS011;11573;51.334;3.244;2023-07-09T05:17:15;12.75;;;5.43;;
22812;SDS011;11573;51.334;3.244;2023-07-09T05:19:42;16.70;;;6.30;;
22812;SDS011;11573;51.334;3.244;2023-07-09T05:22:09;17.63;;;6.47;;
22812;SDS011;11573;51.334;3.244;2023-07-09T05:24:36;10.57;;;5.70;;
22812;SDS011;11573;51.334;3.244;2023-07-09T05:27:03;24.85;;;6.20;;
22812;SDS011;11573;51.334;3.244;2023-07-09T05:29:30;15.63;;;5.93;;
22812;SDS011;11573;51.334;3.244;2023-07-09T05:31:57;18.38;;;6.38;;
22812;SDS011;11573;51.334;3.244;2023-07-09T05:34:24;15.13;;;6.20;;
22812;SDS011;11573;51.334;3.244;2023-07-09T05:36:51;15.00;;;6.00;;
22812;SDS011;11573;51.334;3.244;2023-07-09T05:39:18;16.67;;;6.50;;
22812;SDS011;11573;51.334;3.244;2023-07-09T05:41:45;11.65;;;5.63;;
22812;SDS011;11573;51.334;3.244;2023-07-09T05:44:12;19.30;;;6.05;;
22812;SDS011;11573;51.334;3.244;2023-07-09T05:46:39;14.02;;;5.22;;
22812;SDS011;11573;51.334;3.244;2023-07-09T05:49:06;12.65;;;5.38;;
22812;SDS011;11573;51.334;3.244;2023-07-09T05:51:34;15.45;;;5.55;;
22812;SDS011;11573;51.334;3.244;2023-07-09T05:54:01;11.55;;;5.85;;
22812;SDS011;11573;51.334;3.244;2023-07-09T05:56:28;13.23;;;5.50;;
22812;SDS011;11573;51.334;3.244;2023-07-09T05:58:55;11.68;;;5.25;;
22812;SDS011;11573;51.334;3.244;2023-07-09T06:01:23;15.93;;;5.65;;
22812;SDS011;11573;51.334;3.244;2023-07-09T06:03:50;13.55;;;5.50;;
22812;SDS011;11573;51.334;3.244;2023-07-09T06:06:17;15.30;;;5.82;;
22812;SDS011;11573;51.334;3.244;2023-07-09T06:08:44;9.38;;;5.05;;
22812;SDS011;11573;51.334;3.244;2023-07-09T06:11:13;12.52;;;5.68;;
22812;SDS011;11573;51.334;3.244;2023-07-09T06:13:40;15.60;;;5.00;;
22812;SDS011;11573;51.334;3.244;2023-07-09T06:16:07;12.80;;;5.57;;
22812;SDS011;11573;51.334;3.244;2023-07-09T06:18:34;14.85;;;4.93;;
22812;SDS011;11573;51.334;3.244;2023-07-09T06:21:02;10.30;;;4.68;;
22812;SDS011;11573;51.334;3.244;2023-07-09T06:23:30;14.57;;;4.65;;
22812;SDS011;11573;51.334;3.244;2023-07-09T06:25:58;14.02;;;5.05;;
22812;SDS011;11573;51.334;3.244;2023-07-09T06:28:26;9.68;;;5.00;;
22812;SDS011;11573;51.334;3.244;2023-07-09T06:30:56;12.85;;;5.28;;
22812;SDS011;11573;51.334;3.244;2023-07-09T06:33:24;13.07;;;4.85;;
22812;SDS011;11573;51.334;3.244;2023-07-09T06:35:53;11.55;;;5.10;;
22812;SDS011;11573;51.334;3.244;2023-07-09T06:38:23;15.93;;;5.00;;
22812;SDS011;11573;51.334;3.244;2023-07-09T06:40:50;9.73;;;4.90;;
22812;SDS011;11573;51.334;3.244;2023-07-09T06:43:18;15.40;;;5.70;;
22812;SDS011;11573;51.334;3.244;2023-07-09T06:45:52;6.97;;;4.35;;
22812;SDS011;11573;51.334;3.244;2023-07-09T06:48:23;11.70;;;4.68;;
22812;SDS011;11573;51.334;3.244;2023-07-09T06:50:52;13.38;;;5.13;;
22812;SDS011;11573;51.334;3.244;2023-07-09T06:53:21;13.63;;;5.10;;
22812;SDS011;11573;51.334;3.244;2023-07-09T06:55:48;13.63;;;5.47;;
22812;SDS011;11573;51.334;3.244;2023-07-09T06:58:16;17.40;;;5.72;;
22812;SDS011;11573;51.334;3.244;2023-07-09T07:00:44;11.45;;;5.45;;
22812;SDS011;11573;51.334;3.244;2023-07-09T07:03:12;13.90;;;5.38;;
22812;SDS011;11573;51.334;3.244;2023-07-09T07:05:43;12.85;;;5.35;;
22812;SDS011;11573;51.334;3.244;2023-07-09T07:08:12;10.95;;;4.53;;
22812;SDS011;11573;51.334;3.244;2023-07-09T07:10:41;12.35;;;5.25;;
22812;SDS011;11573;51.334;3.244;2023-07-09T07:13:10;10.02;;;4.75;;
22812;SDS011;11573;51.334;3.244;2023-07-09T07:15:37;10.77;;;5.03;;
22812;SDS011;11573;51.334;3.244;2023-07-09T07:18:05;8.93;;;4.85;;
22812;SDS011;11573;51.334;3.244;2023-07-09T07:20:33;14.07;;;5.25;;
22812;SDS011;11573;51.334;3.244;2023-07-09T07:23:00;9.10;;;5.00;;
22812;SDS011;11573;51.334;3.244;2023-07-09T07:25:28;14.80;;;5.65;;
22812;SDS011;11573;51.334;3.244;2023-07-09T07:27:56;15.55;;;6.25;;
22812;SDS011;11573;51.334;3.244;2023-07-09T07:30:23;17.83;;;5.82;;
22812;SDS011;11573;51.334;3.244;2023-07-09T07:32:51;14.23;;;5.93;;
22812;SDS011;11573;51.334;3.244;2023-07-09T07:35:18;13.48;;;6.00;;
22812;SDS011;11573;51.334;3.244;2023-07-09T07:37:46;18.63;;;5.70;;
22812;SDS011;11573;51.334;3.244;2023-07-09T07:40:13;13.77;;;5.15;;
22812;SDS011;11573;51.334;3.244;2023-07-09T07:42:40;15.40;;;5.63;;
22812;SDS011;11573;51.334;3.244;2023-07-09T07:45:07;15.90;;;5.47;;
22812;SDS011;11573;51.334;3.244;2023-07-09T07:47:34;14.75;;;5.70;;
22812;SDS011;11573;51.334;3.244;2023-07-09T07:50:04;14.05;;;5.60;;
22812;SDS011;11573;51.334;3.244;2023-07-09T07:52:34;10.85;;;5.55;;
22812;SDS011;11573;51.334;3.244;2023-07-09T07:55:07;16.40;;;6.65;;
22812;SDS011;11573;51.334;3.244;2023-07-09T07:57:41;21.23;;;7.30;;
22812;SDS011;11573;51.334;3.244;2023-07-09T08:00:08;22.08;;;7.10;;
22812;SDS011;11573;51.334;3.244;2023-07-09T08:02:38;22.17;;;7.90;;
22812;SDS011;11573;51.334;3.244;2023-07-09T08:05:05;24.38;;;7.72;;
22812;SDS011;11573;51.334;3.244;2023-07-09T08:07:32;23.73;;;8.90;;
22812;SDS011;11573;51.334;3.244;2023-07-09T08:09:59;27.45;;;9.25;;
22812;SDS011;11573;51.334;3.244;2023-07-09T08:12:26;21.10;;;7.72;;
22812;SDS011;11573;51.334;3.244;2023-07-09T08:14:53;22.85;;;7.97;;
22812;SDS011;11573;51.334;3.244;2023-07-09T08:17:20;19.25;;;8.30;;
22812;SDS011;11573;51.334;3.244;2023-07-09T08:19:51;22.48;;;7.70;;
22812;SDS011;11573;51.334;3.244;2023-07-09T08:22:20;20.33;;;7.97;;
22812;SDS011;11573;51.334;3.244;2023-07-09T08:24:49;24.02;;;8.27;;
22812;SDS011;11573;51.334;3.244;2023-07-09T08:27:16;19.20;;;7.65;;
22812;SDS011;11573;51.334;3.244;2023-07-09T08:29:44;20.88;;;7.40;;
22812;SDS011;11573;51.334;3.244;2023-07-09T08:32:11;21.88;;;7.82;;
22812;SDS011;11573;51.334;3.244;2023-07-09T08:34:39;20.38;;;8.10;;
22812;SDS011;11573;51.334;3.244;2023-07-09T08:37:27;17.75;;;7.38;;
22812;SDS011;11573;51.334;3.244;2023-07-09T08:39:54;21.20;;;7.68;;
22812;SDS011;11573;51.334;3.244;2023-07-09T08:42:24;18.25;;;8.38;;
22812;SDS011;11573;51.334;3.244;2023-07-09T08:47:51;14.05;;;5.97;;
22812;SDS011;11573;51.334;3.244;2023-07-09T08:50:55;18.83;;;6.95;;
22812;SDS011;11573;51.334;3.244;2023-07-09T08:53:31;17.65;;;7.18;;
22812;SDS011;11573;51.334;3.244;2023-07-09T08:56:03;14.00;;;6.35;;
22812;SDS011;11573;51.334;3.244;2023-07-09T08:58:31;14.68;;;6.78;;
22812;SDS011;11573;51.334;3.244;2023-07-09T09:01:02;15.38;;;6.57;;
22812;SDS011;11573;51.334;3.244;2023-07-09T09:03:40;22.20;;;6.93;;
22812;SDS011;11573;51.334;3.244;2023-07-09T09:06:12;13.02;;;6.07;;
22812;SDS011;11573;51.334;3.244;2023-07-09T09:14:17;10.82;;;5.75;;
22812;SDS011;11573;51.334;3.244;2023-07-09T09:16:45;15.80;;;7.15;;
22812;SDS011;11573;51.334;3.244;2023-07-09T09:19:25;18.38;;;7.25;;
22812;SDS011;11573;51.334;3.244;2023-07-09T09:22:00;22.40;;;8.32;;
22812;SDS011;11573;51.334;3.244;2023-07-09T09:24:35;19.23;;;7.70;;
22812;SDS011;11573;51.334;3.244;2023-07-09T09:27:04;19.38;;;8.07;;
22812;SDS011;11573;51.334;3.244;2023-07-09T09:29:31;25.95;;;9.23;;
22812;SDS011;11573;51.334;3.244;2023-07-09T09:31:58;21.63;;;8.23;;
22812;SDS011;11573;51.334;3.244;2023-07-09T09:34:38;23.15;;;8.65;;
22812;SDS011;11573;51.334;3.244;2023-07-09T09:37:09;24.90;;;9.60;;
22812;SDS011;11573;51.334;3.244;2023-07-09T09:39:38;18.95;;;8.93;;
22812;SDS011;11573;51.334;3.244;2023-07-09T09:42:09;21.00;;;8.93;;
22812;SDS011;11573;51.334;3.244;2023-07-09T09:44:42;23.58;;;10.52;;
22812;SDS011;11573;51.334;3.244;2023-07-09T09:47:11;25.25;;;9.50;;
22812;SDS011;11573;51.334;3.244;2023-07-09T09:49:43;25.02;;;10.15;;
22812;SDS011;11573;51.334;3.244;2023-07-09T09:52:14;21.52;;;9.38;;
22812;SDS011;11573;51.334;3.244;2023-07-09T09:54:46;23.90;;;10.63;;
22812;SDS011;11573;51.334;3.244;2023-07-09T09:57:23;28.13;;;11.65;;
22812;SDS011;11573;51.334;3.244;2023-07-09T09:59:53;24.33;;;11.93;;
22812;SDS011;11573;51.334;3.244;2023-07-09T10:02:22;25.48;;;11.45;;
22812;SDS011;11573;51.334;3.244;2023-07-09T10:04:51;24.15;;;12.57;;
22812;SDS011;11573;51.334;3.244;2023-07-09T10:07:21;26.67;;;12.50;;
22812;SDS011;11573;51.334;3.244;2023-07-09T10:09:54;28.17;;;13.63;;
22812;SDS011;11573;51.334;3.244;2023-07-09T10:19:57;23.23;;;13.48;;
22812;SDS011;11573;51.334;3.244;2023-07-09T10:39:38;25.25;;;13.48;;
22812;SDS011;11573;51.334;3.244;2023-07-09T10:42:24;21.48;;;12.45;;
22812;SDS011;11573;51.334;3.244;2023-07-09T10:45:30;18.80;;;11.60;;
22812;SDS011;11573;51.334;3.244;2023-07-09T10:48:08;19.10;;;11.02;;
22812;SDS011;11573;51.334;3.244;2023-07-09T10:50:46;16.73;;;10.80;;
22812;SDS011;11573;51.334;3.244;2023-07-09T10:56:05;19.33;;;11.75;;
22812;SDS011;11573;51.334;3.244;2023-07-09T10:58:40;18.48;;;12.95;;
22812;SDS011;11573;51.334;3.244;2023-07-09T11:01:15;22.27;;;13.30;;
22812;SDS011;11573;51.334;3.244;2023-07-09T11:03:53;22.75;;;13.30;;
22812;SDS011;11573;51.334;3.244;2023-07-09T11:06:31;21.13;;;12.60;;
22812;SDS011;11573;51.334;3.244;2023-07-09T11:09:07;17.38;;;11.32;;
22812;SDS011;11573;51.334;3.244;2023-07-09T11:11:48;18.80;;;11.02;;
22812;SDS011;11573;51.334;3.244;2023-07-09T11:14:39;17.65;;;10.52;;
22812;SDS011;11573;51.334;3.244;2023-07-09T11:17:20;16.27;;;8.90;;
22812;SDS011;11573;51.334;3.244;2023-07-09T11:19:53;10.77;;;8.07;;
22812;SDS011;11573;51.334;3.244;2023-07-09T11:22:24;13.82;;;8.35;;
22812;SDS011;11573;51.334;3.244;2023-07-09T11:25:12;14.30;;;8.40;;
22812;SDS011;11573;51.334;3.244;2023-07-09T11:27:52;18.85;;;8.05;;
22812;SDS011;11573;51.334;3.244;2023-07-09T11:30:24;14.98;;;7.50;;
22812;SDS011;11573;51.334;3.244;2023-07-09T11:33:03;16.50;;;7.00;;
22812;SDS011;11573;51.334;3.244;2023-07-09T11:35:51;13.63;;;7.30;;
22812;SDS011;11573;51.334;3.244;2023-07-09T11:38:22;13.23;;;7.55;;
22812;SDS011;11573;51.334;3.244;2023-07-09T11:40:53;14.65;;;6.90;;
22812;SDS011;11573;51.334;3.244;2023-07-09T11:43:28;13.38;;;7.45;;
22812;SDS011;11573;51.334;3.244;2023-07-09T11:46:07;11.77;;;7.68;;
22812;SDS011;11573;51.334;3.244;2023-07-09T11:48:40;13.18;;;7.78;;
22812;SDS011;11573;51.334;3.244;2023-07-09T11:51:09;17.88;;;8.05;;
22812;SDS011;11573;51.334;3.244;2023-07-09T11:53:45;16.08;;;7.80;;
22812;SDS011;11573;51.334;3.244;2023-07-09T11:56:17;12.32;;;7.60;;
22812;SDS011;11573;51.334;3.244;2023-07-09T11:58:51;15.65;;;7.80;;
22812;SDS011;11573;51.334;3.244;2023-07-09T12:01:24;13.25;;;8.13;;
22812;SDS011;11573;51.334;3.244;2023-07-09T12:04:03;17.88;;;8.00;;
22812;SDS011;11573;51.334;3.244;2023-07-09T12:06:32;14.05;;;8.15;;
22812;SDS011;11573;51.334;3.244;2023-07-09T12:08:59;14.63;;;7.75;;
22812;SDS011;11573;51.334;3.244;2023-07-09T12:11:31;18.25;;;8.05;;
22812;SDS011;11573;51.334;3.244;2023-07-09T12:14:03;18.52;;;8.80;;
22812;SDS011;11573;51.334;3.244;2023-07-09T12:16:35;16.80;;;8.57;;
22812;SDS011;11573;51.334;3.244;2023-07-09T12:19:08;16.77;;;7.72;;
22812;SDS011;11573;51.334;3.244;2023-07-09T12:21:38;18.45;;;8.55;;
22812;SDS011;11573;51.334;3.244;2023-07-09T12:24:15;16.88;;;7.85;;
22812;SDS011;11573;51.334;3.244;2023-07-09T12:26:52;13.30;;;7.75;;
22812;SDS011;11573;51.334;3.244;2023-07-09T12:29:19;15.32;;;8.30;;
22812;SDS011;11573;51.334;3.244;2023-07-09T12:31:49;14.30;;;7.70;;
22812;SDS011;11573;51.334;3.244;2023-07-09T12:34:17;16.42;;;8.32;;
22812;SDS011;11573;51.334;3.244;2023-07-09T12:36:46;16.02;;;7.65;;
22812;SDS011;11573;51.334;3.244;2023-07-09T12:39:18;10.65;;;7.18;;
22812;SDS011;11573;51.334;3.244;2023-07-09T12:41:53;15.25;;;6.60;;
22812;SDS011;11573;51.334;3.244;2023-07-09T12:44:22;14.70;;;6.95;;
22812;SDS011;11573;51.334;3.244;2023-07-09T12:46:51;10.07;;;6.45;;
22812;SDS011;11573;51.334;3.244;2023-07-09T12:49:26;11.15;;;6.07;;
22812;SDS011;11573;51.334;3.244;2023-07-09T12:54:22;8.70;;;5.10;;
22812;SDS011;11573;51.334;3.244;2023-07-09T12:56:53;9.18;;;5.50;;
22812;SDS011;11573;51.334;3.244;2023-07-09T13:04:30;8.90;;;5.07;;
22812;SDS011;11573;51.334;3.244;2023-07-09T13:07:03;11.25;;;4.88;;
22812;SDS011;11573;51.334;3.244;2023-07-09T13:09:31;7.70;;;4.15;;
22812;SDS011;11573;51.334;3.244;2023-07-09T13:11:58;9.80;;;4.70;;
22812;SDS011;11573;51.334;3.244;2023-07-09T13:14:27;7.70;;;4.57;;
22812;SDS011;11573;51.334;3.244;2023-07-09T13:17:07;7.82;;;4.10;;
22812;SDS011;11573;51.334;3.244;2023-07-09T13:19:35;6.57;;;4.22;;
22812;SDS011;11573;51.334;3.244;2023-07-09T13:22:04;8.60;;;4.38;;
22812;SDS011;11573;51.334;3.244;2023-07-09T13:24:32;6.60;;;3.97;;
22812;SDS011;11573;51.334;3.244;2023-07-09T13:27:00;7.25;;;3.90;;
22812;SDS011;11573;51.334;3.244;2023-07-09T13:29:27;12.15;;;4.47;;
22812;SDS011;11573;51.334;3.244;2023-07-09T13:31:55;8.40;;;4.30;;
22812;SDS011;11573;51.334;3.244;2023-07-09T13:34:26;10.82;;;4.63;;
22812;SDS011;11573;51.334;3.244;2023-07-09T13:36:54;7.80;;;4.07;;
22812;SDS011;11573;51.334;3.244;2023-07-09T13:39:22;6.78;;;3.65;;
22812;SDS011;11573;51.334;3.244;2023-07-09T13:41:54;7.45;;;4.28;;
22812;SDS011;11573;51.334;3.244;2023-07-09T13:44:23;7.80;;;3.88;;
22812;SDS011;11573;51.334;3.244;2023-07-09T13:46:52;6.38;;;4.18;;
22812;SDS011;11573;51.334;3.244;2023-07-09T13:49:20;10.30;;;4.45;;
22812;SDS011;11573;51.334;3.244;2023-07-09T13:51:50;8.95;;;3.58;;
22812;SDS011;11573;51.334;3.244;2023-07-09T13:54:29;7.05;;;3.97;;
22812;SDS011;11573;51.334;3.244;2023-07-09T13:57:02;8.18;;;3.60;;
22812;SDS011;11573;51.334;3.244;2023-07-09T13:59:33;8.43;;;3.83;;
22812;SDS011;11573;51.334;3.244;2023-07-09T14:02:00;10.52;;;4.10;;
22812;SDS011;11573;51.334;3.244;2023-07-09T14:04:31;5.95;;;3.33;;
22812;SDS011;11573;51.334;3.244;2023-07-09T14:06:58;11.25;;;3.80;;
22812;SDS011;11573;51.334;3.244;2023-07-09T14:09:25;7.88;;;3.42;;
22812;SDS011;11573;51.334;3.244;2023-07-09T14:11:53;6.72;;;3.47;;
22812;SDS011;11573;51.334;3.244;2023-07-09T14:14:22;8.05;;;2.97;;
22812;SDS011;11573;51.334;3.244;2023-07-09T14:16:51;10.55;;;3.50;;
22812;SDS011;11573;51.334;3.244;2023-07-09T14:19:20;8.13;;;3.58;;
22812;SDS011;11573;51.334;3.244;2023-07-09T14:21:51;7.53;;;3.03;;
22812;SDS011;11573;51.334;3.244;2023-07-09T14:26:51;10.18;;;3.25;;
22812;SDS011;11573;51.334;3.244;2023-07-09T14:29:23;5.95;;;3.22;;
22812;SDS011;11573;51.334;3.244;2023-07-09T14:31:50;7.75;;;2.88;;
22812;SDS011;11573;51.334;3.244;2023-07-09T14:34:19;8.18;;;2.90;;
22812;SDS011;11573;51.334;3.244;2023-07-09T14:36:49;12.02;;;3.58;;
22812;SDS011;11573;51.334;3.244;2023-07-09T14:39:17;6.55;;;2.83;;
22812;SDS011;11573;51.334;3.244;2023-07-09T14:41:44;7.93;;;3.55;;
22812;SDS011;11573;51.334;3.244;2023-07-09T14:44:28;10.23;;;3.85;;
22812;SDS011;11573;51.334;3.244;2023-07-09T14:46:57;10.77;;;3.42;;
22812;SDS011;11573;51.334;3.244;2023-07-09T14:49:26;6.35;;;2.78;;
22812;SDS011;11573;51.334;3.244;2023-07-09T14:51:54;8.63;;;3.38;;
22812;SDS011;11573;51.334;3.244;2023-07-09T14:54:26;8.13;;;3.28;;
22812;SDS011;11573;51.334;3.244;2023-07-09T14:56:56;8.20;;;2.90;;
22812;SDS011;11573;51.334;3.244;2023-07-09T14:59:24;7.28;;;2.78;;
22812;SDS011;11573;51.334;3.244;2023-07-09T15:01:52;8.50;;;3.03;;
22812;SDS011;11573;51.334;3.244;2023-07-09T15:04:32;10.43;;;3.03;;
22812;SDS011;11573;51.334;3.244;2023-07-09T15:07:00;10.23;;;2.80;;
22812;SDS011;11573;51.334;3.244;2023-07-09T15:09:27;8.48;;;2.83;;
22812;SDS011;11573;51.334;3.244;2023-07-09T15:11:57;7.47;;;2.70;;
22812;SDS011;11573;51.334;3.244;2023-07-09T15:14:26;6.88;;;3.25;;
22812;SDS011;11573;51.334;3.244;2023-07-09T15:16:54;8.15;;;3.60;;
22812;SDS011;11573;51.334;3.244;2023-07-09T15:19:26;8.80;;;3.00;;
22812;SDS011;11573;51.334;3.244;2023-07-09T15:21:54;9.73;;;3.55;;
22812;SDS011;11573;51.334;3.244;2023-07-09T15:24:55;7.80;;;3.47;;
22812;SDS011;11573;51.334;3.244;2023-07-09T15:27:15;12.82;;;3.83;;
22812;SDS011;11573;51.334;3.244;2023-07-09T15:29:42;7.47;;;3.13;;
22812;SDS011;11573;51.334;3.244;2023-07-09T15:32:09;8.68;;;3.00;;
22812;SDS011;11573;51.334;3.244;2023-07-09T15:34:36;8.63;;;3.15;;
22812;SDS011;11573;51.334;3.244;2023-07-09T15:37:11;6.40;;;2.17;;
22812;SDS011;11573;51.334;3.244;2023-07-09T15:39:47;6.97;;;2.50;;
22812;SDS011;11573;51.334;3.244;2023-07-09T15:42:14;7.20;;;3.00;;